sensor_id;sensor_type;location;lat;lon;timestamp;temperature;humidity
1570;DHT22;778;50.120;8.698;2022-07-22T00:00:01;20.60;99.90
1570;DHT22;778;50.120;8.698;2022-07-22T00:02:31;20.50;99.90
1570;DHT22;778;50.120;8.698;2022-07-22T00:05:00;20.60;99.90
1570;DHT22;778;50.120;8.698;2022-07-22T00:07:29;20.50;99.90
1570;DHT22;778;50.120;8.698;2022-07-22T00:09:57;20.60;99.90
1570;DHT22;778;50.120;8.698;2022-07-22T00:12:26;20.80;99.90
1570;DHT22;778;50.120;8.698;2022-07-22T00:14:54;20.80;99.90
1570;DHT22;778;50.120;8.698;2022-07-22T00:17:24;20.80;99.90
1570;DHT22;778;50.120;8.698;2022-07-22T00:19:53;20.90;99.90
1570;DHT22;778;50.120;8.698;2022-07-22T00:22:21;20.90;99.90
1570;DHT22;778;50.120;8.698;2022-07-22T00:24:49;21.00;99.90
1570;DHT22;778;50.120;8.698;2022-07-22T00:27:18;21.00;99.90
1570;DHT22;778;50.120;8.698;2022-07-22T00:29:46;21.10;99.90
1570;DHT22;778;50.120;8.698;2022-07-22T00:32:15;21.00;99.90
1570;DHT22;778;50.120;8.698;2022-07-22T00:34:45;20.80;99.90
1570;DHT22;778;50.120;8.698;2022-07-22T00:37:14;20.80;99.90
1570;DHT22;778;50.120;8.698;2022-07-22T00:39:43;20.80;99.90
1570;DHT22;778;50.120;8.698;2022-07-22T00:42:11;20.80;99.90
1570;DHT22;778;50.120;8.698;2022-07-22T00:44:40;20.80;99.90
1570;DHT22;778;50.120;8.698;2022-07-22T00:47:09;20.80;99.90
1570;DHT22;778;50.120;8.698;2022-07-22T00:49:37;20.90;99.90
1570;DHT22;778;50.120;8.698;2022-07-22T00:52:07;20.90;99.90
1570;DHT22;778;50.120;8.698;2022-07-22T00:54:37;20.90;99.90
1570;DHT22;778;50.120;8.698;2022-07-22T00:57:06;20.90;99.90
1570;DHT22;778;50.120;8.698;2022-07-22T00:59:35;20.90;99.90
1570;DHT22;778;50.120;8.698;2022-07-22T01:02:03;20.80;99.90
1570;DHT22;778;50.120;8.698;2022-07-22T01:04:32;20.80;99.90
1570;DHT22;778;50.120;8.698;2022-07-22T01:07:00;20.70;99.90
1570;DHT22;778;50.120;8.698;2022-07-22T01:09:30;20.70;99.90
1570;DHT22;778;50.120;8.698;2022-07-22T01:12:00;20.60;99.90
1570;DHT22;778;50.120;8.698;2022-07-22T01:14:30;20.60;99.90
1570;DHT22;778;50.120;8.698;2022-07-22T01:16:59;20.60;99.90
1570;DHT22;778;50.120;8.698;2022-07-22T01:19:27;20.70;99.90
1570;DHT22;778;50.120;8.698;2022-07-22T01:21:57;20.60;99.90
1570;DHT22;778;50.120;8.698;2022-07-22T01:24:26;20.70;99.90
1570;DHT22;778;50.120;8.698;2022-07-22T01:26:55;20.70;99.90
1570;DHT22;778;50.120;8.698;2022-07-22T01:29:23;20.70;99.90
1570;DHT22;778;50.120;8.698;2022-07-22T01:31:52;20.80;99.90
1570;DHT22;778;50.120;8.698;2022-07-22T01:34:20;20.70;99.90
1570;DHT22;778;50.120;8.698;2022-07-22T01:36:49;20.70;99.90
1570;DHT22;778;50.120;8.698;2022-07-22T01:39:19;20.80;99.90
1570;DHT22;778;50.120;8.698;2022-07-22T01:41:47;20.70;99.90
1570;DHT22;778;50.120;8.698;2022-07-22T01:44:16;20.70;99.90
1570;DHT22;778;50.120;8.698;2022-07-22T01:46:44;20.50;99.90
1570;DHT22;778;50.120;8.698;2022-07-22T01:49:13;20.30;99.90
1570;DHT22;778;50.120;8.698;2022-07-22T01:51:43;20.10;99.90
1570;DHT22;778;50.120;8.698;2022-07-22T01:54:12;20.00;99.90
1570;DHT22;778;50.120;8.698;2022-07-22T01:56:41;20.00;99.90
1570;DHT22;778;50.120;8.698;2022-07-22T01:59:10;20.10;99.90
1570;DHT22;778;50.120;8.698;2022-07-22T02:01:39;20.00;99.90
1570;DHT22;778;50.120;8.698;2022-07-22T02:04:07;19.90;99.90
1570;DHT22;778;50.120;8.698;2022-07-22T02:06:37;20.00;99.90
1570;DHT22;778;50.120;8.698;2022-07-22T02:09:08;20.10;99.90
1570;DHT22;778;50.120;8.698;2022-07-22T02:11:42;20.20;99.90
1570;DHT22;778;50.120;8.698;2022-07-22T02:14:13;20.20;99.90
1570;DHT22;778;50.120;8.698;2022-07-22T02:16:42;20.20;99.90
1570;DHT22;778;50.120;8.698;2022-07-22T02:19:11;20.10;99.90
1570;DHT22;778;50.120;8.698;2022-07-22T02:21:40;19.90;99.90
1570;DHT22;778;50.120;8.698;2022-07-22T02:24:09;19.80;99.90
1570;DHT22;778;50.120;8.698;2022-07-22T02:26:37;19.80;99.90
1570;DHT22;778;50.120;8.698;2022-07-22T02:29:07;19.70;99.90
1570;DHT22;778;50.120;8.698;2022-07-22T02:31:35;19.80;99.90
1570;DHT22;778;50.120;8.698;2022-07-22T02:34:06;19.80;99.90
1570;DHT22;778;50.120;8.698;2022-07-22T02:36:36;19.80;99.90
1570;DHT22;778;50.120;8.698;2022-07-22T02:39:05;19.80;99.90
1570;DHT22;778;50.120;8.698;2022-07-22T02:41:34;19.70;99.90
1570;DHT22;778;50.120;8.698;2022-07-22T02:44:03;19.80;99.90
1570;DHT22;778;50.120;8.698;2022-07-22T02:46:33;19.70;99.90
1570;DHT22;778;50.120;8.698;2022-07-22T02:49:15;19.70;99.90
1570;DHT22;778;50.120;8.698;2022-07-22T02:51:44;19.70;99.90
1570;DHT22;778;50.120;8.698;2022-07-22T02:54:12;19.70;99.90
1570;DHT22;778;50.120;8.698;2022-07-22T02:56:41;19.70;99.90
1570;DHT22;778;50.120;8.698;2022-07-22T02:59:10;19.70;99.90
1570;DHT22;778;50.120;8.698;2022-07-22T03:01:40;19.60;99.90
1570;DHT22;778;50.120;8.698;2022-07-22T03:04:09;19.60;99.90
1570;DHT22;778;50.120;8.698;2022-07-22T03:06:39;19.70;99.90
1570;DHT22;778;50.120;8.698;2022-07-22T03:09:15;19.70;99.90
1570;DHT22;778;50.120;8.698;2022-07-22T03:11:45;19.70;99.90
1570;DHT22;778;50.120;8.698;2022-07-22T03:14:14;19.70;99.90
1570;DHT22;778;50.120;8.698;2022-07-22T03:16:44;19.80;99.90
1570;DHT22;778;50.120;8.698;2022-07-22T03:19:13;19.80;99.90
1570;DHT22;778;50.120;8.698;2022-07-22T03:21:46;19.80;99.90
1570;DHT22;778;50.120;8.698;2022-07-22T03:24:15;19.90;99.90
1570;DHT22;778;50.120;8.698;2022-07-22T03:26:43;19.90;99.90
1570;DHT22;778;50.120;8.698;2022-07-22T03:29:12;19.90;99.90
1570;DHT22;778;50.120;8.698;2022-07-22T03:31:40;19.90;99.90
1570;DHT22;778;50.120;8.698;2022-07-22T03:34:10;19.90;99.90
1570;DHT22;778;50.120;8.698;2022-07-22T03:36:45;20.00;99.90
1570;DHT22;778;50.120;8.698;2022-07-22T03:39:13;20.00;99.90
1570;DHT22;778;50.120;8.698;2022-07-22T03:41:42;20.10;99.90
1570;DHT22;778;50.120;8.698;2022-07-22T03:44:10;20.10;99.90
1570;DHT22;778;50.120;8.698;2022-07-22T03:46:39;20.10;99.90
1570;DHT22;778;50.120;8.698;2022-07-22T03:49:07;20.10;99.90
1570;DHT22;778;50.120;8.698;2022-07-22T03:51:37;20.20;99.90
1570;DHT22;778;50.120;8.698;2022-07-22T03:54:06;20.20;99.90
1570;DHT22;778;50.120;8.698;2022-07-22T03:56:39;20.10;99.90
1570;DHT22;778;50.120;8.698;2022-07-22T03:59:07;20.10;99.90
1570;DHT22;778;50.120;8.698;2022-07-22T04:01:36;20.10;99.90
1570;DHT22;778;50.120;8.698;2022-07-22T04:04:07;20.10;99.90
1570;DHT22;778;50.120;8.698;2022-07-22T04:06:40;20.20;99.90
1570;DHT22;778;50.120;8.698;2022-07-22T04:09:19;20.10;99.90
1570;DHT22;778;50.120;8.698;2022-07-22T04:11:48;20.20;99.90
1570;DHT22;778;50.120;8.698;2022-07-22T04:14:18;20.20;99.90
1570;DHT22;778;50.120;8.698;2022-07-22T04:16:47;20.20;99.90
1570;DHT22;778;50.120;8.698;2022-07-22T04:19:15;20.10;99.90
1570;DHT22;778;50.120;8.698;2022-07-22T04:21:52;19.90;99.90
1570;DHT22;778;50.120;8.698;2022-07-22T04:24:23;20.00;99.90
1570;DHT22;778;50.120;8.698;2022-07-22T04:26:51;19.90;99.90
1570;DHT22;778;50.120;8.698;2022-07-22T04:29:19;20.00;99.90
1570;DHT22;778;50.120;8.698;2022-07-22T04:31:48;20.20;99.90
1570;DHT22;778;50.120;8.698;2022-07-22T04:34:18;20.40;99.90
1570;DHT22;778;50.120;8.698;2022-07-22T04:36:48;20.50;99.90
1570;DHT22;778;50.120;8.698;2022-07-22T04:39:19;20.60;99.90
1570;DHT22;778;50.120;8.698;2022-07-22T04:41:54;20.90;99.90
1570;DHT22;778;50.120;8.698;2022-07-22T04:44:23;21.00;99.90
1570;DHT22;778;50.120;8.698;2022-07-22T04:46:51;20.90;99.90
1570;DHT22;778;50.120;8.698;2022-07-22T04:49:20;20.90;99.90
1570;DHT22;778;50.120;8.698;2022-07-22T04:51:49;20.90;99.90
1570;DHT22;778;50.120;8.698;2022-07-22T04:54:29;21.00;99.90
1570;DHT22;778;50.120;8.698;2022-07-22T04:56:58;21.10;99.90
1570;DHT22;778;50.120;8.698;2022-07-22T04:59:27;21.10;99.90
1570;DHT22;778;50.120;8.698;2022-07-22T05:01:55;21.20;99.90
1570;DHT22;778;50.120;8.698;2022-07-22T05:04:25;21.40;99.90
1570;DHT22;778;50.120;8.698;2022-07-22T05:06:54;21.70;99.90
1570;DHT22;778;50.120;8.698;2022-07-22T05:09:22;21.90;99.90
1570;DHT22;778;50.120;8.698;2022-07-22T05:11:52;22.00;99.90
1570;DHT22;778;50.120;8.698;2022-07-22T05:14:22;21.90;99.90
1570;DHT22;778;50.120;8.698;2022-07-22T05:16:51;21.80;99.90
1570;DHT22;778;50.120;8.698;2022-07-22T05:19:19;21.80;99.90
1570;DHT22;778;50.120;8.698;2022-07-22T05:21:50;22.00;99.90
1570;DHT22;778;50.120;8.698;2022-07-22T05:24:18;22.20;99.90
1570;DHT22;778;50.120;8.698;2022-07-22T05:26:47;22.30;99.90
1570;DHT22;778;50.120;8.698;2022-07-22T05:29:17;22.20;99.90
1570;DHT22;778;50.120;8.698;2022-07-22T05:31:45;22.00;99.90
1570;DHT22;778;50.120;8.698;2022-07-22T05:34:14;21.90;99.90
1570;DHT22;778;50.120;8.698;2022-07-22T05:36:50;22.00;99.90
1570;DHT22;778;50.120;8.698;2022-07-22T05:39:18;22.30;99.90
1570;DHT22;778;50.120;8.698;2022-07-22T05:41:47;22.50;99.90
1570;DHT22;778;50.120;8.698;2022-07-22T05:44:23;22.70;99.90
1570;DHT22;778;50.120;8.698;2022-07-22T05:46:51;23.10;99.90
1570;DHT22;778;50.120;8.698;2022-07-22T05:49:20;23.30;99.90
1570;DHT22;778;50.120;8.698;2022-07-22T05:51:54;23.30;99.90
1570;DHT22;778;50.120;8.698;2022-07-22T05:54:24;23.00;99.90
1570;DHT22;778;50.120;8.698;2022-07-22T05:56:53;22.70;99.90
1570;DHT22;778;50.120;8.698;2022-07-22T05:59:23;22.70;99.90
1570;DHT22;778;50.120;8.698;2022-07-22T06:01:52;22.70;99.90
1570;DHT22;778;50.120;8.698;2022-07-22T06:04:38;22.70;99.90
1570;DHT22;778;50.120;8.698;2022-07-22T06:07:07;22.90;99.90
1570;DHT22;778;50.120;8.698;2022-07-22T06:09:37;22.60;99.90
1570;DHT22;778;50.120;8.698;2022-07-22T06:12:07;22.80;99.90
1570;DHT22;778;50.120;8.698;2022-07-22T06:14:37;23.30;99.90
1570;DHT22;778;50.120;8.698;2022-07-22T06:17:09;23.80;99.90
1570;DHT22;778;50.120;8.698;2022-07-22T06:19:37;23.90;99.90
1570;DHT22;778;50.120;8.698;2022-07-22T06:22:06;23.40;99.90
1570;DHT22;778;50.120;8.698;2022-07-22T06:24:34;23.40;99.90
1570;DHT22;778;50.120;8.698;2022-07-22T06:27:03;23.90;99.90
1570;DHT22;778;50.120;8.698;2022-07-22T06:29:31;24.30;99.90
1570;DHT22;778;50.120;8.698;2022-07-22T06:32:01;24.40;99.90
1570;DHT22;778;50.120;8.698;2022-07-22T06:34:30;23.80;99.90
1570;DHT22;778;50.120;8.698;2022-07-22T06:37:02;23.90;99.90
1570;DHT22;778;50.120;8.698;2022-07-22T06:39:31;23.60;99.90
1570;DHT22;778;50.120;8.698;2022-07-22T06:42:08;24.00;99.90
1570;DHT22;778;50.120;8.698;2022-07-22T06:45:00;24.30;99.90
1570;DHT22;778;50.120;8.698;2022-07-22T06:47:57;24.90;99.90
1570;DHT22;778;50.120;8.698;2022-07-22T06:50:26;25.30;99.90
1570;DHT22;778;50.120;8.698;2022-07-22T06:52:55;25.50;99.90
1570;DHT22;778;50.120;8.698;2022-07-22T06:55:24;25.10;99.90
1570;DHT22;778;50.120;8.698;2022-07-22T06:58:07;24.60;99.90
1570;DHT22;778;50.120;8.698;2022-07-22T07:00:36;24.60;99.90
1570;DHT22;778;50.120;8.698;2022-07-22T07:03:21;24.70;99.90
1570;DHT22;778;50.120;8.698;2022-07-22T07:06:07;24.30;99.90
1570;DHT22;778;50.120;8.698;2022-07-22T07:08:58;23.80;99.90
1570;DHT22;778;50.120;8.698;2022-07-22T07:11:28;23.80;99.90
1570;DHT22;778;50.120;8.698;2022-07-22T07:13:57;23.50;99.90
1570;DHT22;778;50.120;8.698;2022-07-22T07:16:26;23.60;99.90
1570;DHT22;778;50.120;8.698;2022-07-22T07:18:56;23.90;99.90
1570;DHT22;778;50.120;8.698;2022-07-22T07:21:26;23.80;99.90
1570;DHT22;778;50.120;8.698;2022-07-22T07:23:55;23.80;99.90
1570;DHT22;778;50.120;8.698;2022-07-22T07:26:25;23.60;99.90
1570;DHT22;778;50.120;8.698;2022-07-22T07:28:56;23.60;99.90
1570;DHT22;778;50.120;8.698;2022-07-22T07:31:30;23.60;99.90
1570;DHT22;778;50.120;8.698;2022-07-22T07:34:05;23.60;99.90
1570;DHT22;778;50.120;8.698;2022-07-22T07:36:34;23.90;99.90
1570;DHT22;778;50.120;8.698;2022-07-22T07:39:03;24.00;99.90
1570;DHT22;778;50.120;8.698;2022-07-22T07:41:32;24.20;99.90
1570;DHT22;778;50.120;8.698;2022-07-22T07:44:00;24.80;99.90
1570;DHT22;778;50.120;8.698;2022-07-22T07:46:29;24.90;99.90
1570;DHT22;778;50.120;8.698;2022-07-22T07:48:58;25.40;99.90
1570;DHT22;778;50.120;8.698;2022-07-22T07:51:28;25.90;99.90
1570;DHT22;778;50.120;8.698;2022-07-22T07:53:57;26.10;99.90
1570;DHT22;778;50.120;8.698;2022-07-22T07:56:26;25.90;99.90
1570;DHT22;778;50.120;8.698;2022-07-22T07:58:55;26.20;99.90
1570;DHT22;778;50.120;8.698;2022-07-22T08:01:44;26.50;99.40
1570;DHT22;778;50.120;8.698;2022-07-22T08:04:26;26.40;99.40
1570;DHT22;778;50.120;8.698;2022-07-22T08:07:14;26.80;98.30
1570;DHT22;778;50.120;8.698;2022-07-22T08:09:44;27.00;97.30
1570;DHT22;778;50.120;8.698;2022-07-22T08:12:21;27.10;96.80
1570;DHT22;778;50.120;8.698;2022-07-22T08:15:16;27.60;95.40
1570;DHT22;778;50.120;8.698;2022-07-22T08:17:48;27.60;94.90
1570;DHT22;778;50.120;8.698;2022-07-22T08:20:17;26.80;95.70
1570;DHT22;778;50.120;8.698;2022-07-22T08:22:50;26.80;96.30
1570;DHT22;778;50.120;8.698;2022-07-22T08:25:21;26.70;96.10
1570;DHT22;778;50.120;8.698;2022-07-22T08:27:50;26.90;95.50
1570;DHT22;778;50.120;8.698;2022-07-22T08:30:19;27.20;95.20
1570;DHT22;778;50.120;8.698;2022-07-22T08:32:50;27.50;94.50
1570;DHT22;778;50.120;8.698;2022-07-22T08:35:18;27.80;93.00
1570;DHT22;778;50.120;8.698;2022-07-22T08:37:47;27.80;92.70
1570;DHT22;778;50.120;8.698;2022-07-22T08:40:17;27.80;92.20
1570;DHT22;778;50.120;8.698;2022-07-22T08:42:48;27.60;92.60
1570;DHT22;778;50.120;8.698;2022-07-22T08:45:18;27.30;92.90
1570;DHT22;778;50.120;8.698;2022-07-22T08:47:50;27.20;92.70
1570;DHT22;778;50.120;8.698;2022-07-22T08:50:39;27.30;92.60
1570;DHT22;778;50.120;8.698;2022-07-22T08:53:24;27.70;91.90
1570;DHT22;778;50.120;8.698;2022-07-22T08:55:58;28.00;90.90
1570;DHT22;778;50.120;8.698;2022-07-22T08:58:27;27.80;90.80
1570;DHT22;778;50.120;8.698;2022-07-22T09:03:33;27.90;90.80
1570;DHT22;778;50.120;8.698;2022-07-22T09:06:12;28.10;90.10
1570;DHT22;778;50.120;8.698;2022-07-22T09:08:51;28.20;90.00
1570;DHT22;778;50.120;8.698;2022-07-22T09:12:03;27.90;88.90
1570;DHT22;778;50.120;8.698;2022-07-22T09:15:00;28.00;89.00
1570;DHT22;778;50.120;8.698;2022-07-22T09:17:49;27.80;89.60
1570;DHT22;778;50.120;8.698;2022-07-22T09:20:41;27.80;88.60
1570;DHT22;778;50.120;8.698;2022-07-22T09:23:39;27.90;87.80
1570;DHT22;778;50.120;8.698;2022-07-22T09:26:29;27.30;87.60
1570;DHT22;778;50.120;8.698;2022-07-22T09:29:25;27.40;88.00
1570;DHT22;778;50.120;8.698;2022-07-22T09:32:15;28.20;85.70
1570;DHT22;778;50.120;8.698;2022-07-22T09:35:04;28.10;83.70
1570;DHT22;778;50.120;8.698;2022-07-22T09:37:50;28.80;83.60
1570;DHT22;778;50.120;8.698;2022-07-22T09:40:23;29.10;81.40
1570;DHT22;778;50.120;8.698;2022-07-22T09:42:56;29.00;80.30
1570;DHT22;778;50.120;8.698;2022-07-22T09:45:30;29.40;81.70
1570;DHT22;778;50.120;8.698;2022-07-22T09:48:01;29.20;79.80
1570;DHT22;778;50.120;8.698;2022-07-22T09:50:47;29.40;78.70
1570;DHT22;778;50.120;8.698;2022-07-22T09:53:21;29.00;78.90
1570;DHT22;778;50.120;8.698;2022-07-22T09:55:59;28.60;80.00
1570;DHT22;778;50.120;8.698;2022-07-22T09:58:29;27.90;81.10
1570;DHT22;778;50.120;8.698;2022-07-22T10:01:05;28.30;82.80
1570;DHT22;778;50.120;8.698;2022-07-22T10:03:36;28.40;81.90
1570;DHT22;778;50.120;8.698;2022-07-22T10:06:07;28.30;81.20
1570;DHT22;778;50.120;8.698;2022-07-22T10:08:37;28.50;80.70
1570;DHT22;778;50.120;8.698;2022-07-22T10:11:07;28.50;81.70
1570;DHT22;778;50.120;8.698;2022-07-22T10:13:38;28.50;80.10
1570;DHT22;778;50.120;8.698;2022-07-22T10:16:11;29.00;79.20
1570;DHT22;778;50.120;8.698;2022-07-22T10:18:44;29.40;77.80
1570;DHT22;778;50.120;8.698;2022-07-22T10:21:16;29.30;77.00
1570;DHT22;778;50.120;8.698;2022-07-22T10:24:06;29.40;78.50
1570;DHT22;778;50.120;8.698;2022-07-22T10:26:58;30.00;75.10
1570;DHT22;778;50.120;8.698;2022-07-22T10:29:30;30.00;75.70
1570;DHT22;778;50.120;8.698;2022-07-22T10:32:23;30.20;76.60
1570;DHT22;778;50.120;8.698;2022-07-22T10:35:23;30.60;74.10
1570;DHT22;778;50.120;8.698;2022-07-22T10:37:56;30.60;72.50
1570;DHT22;778;50.120;8.698;2022-07-22T10:40:28;30.50;71.50
1570;DHT22;778;50.120;8.698;2022-07-22T10:43:15;30.60;70.30
1570;DHT22;778;50.120;8.698;2022-07-22T10:45:50;30.00;70.30
1570;DHT22;778;50.120;8.698;2022-07-22T10:48:23;29.30;72.20
1570;DHT22;778;50.120;8.698;2022-07-22T10:51:05;29.60;73.20
1570;DHT22;778;50.120;8.698;2022-07-22T10:53:43;29.40;72.80
1570;DHT22;778;50.120;8.698;2022-07-22T10:56:26;29.70;72.00
1570;DHT22;778;50.120;8.698;2022-07-22T10:58:58;29.30;75.10
1570;DHT22;778;50.120;8.698;2022-07-22T11:01:30;29.50;72.00
1570;DHT22;778;50.120;8.698;2022-07-22T11:04:12;29.40;72.60
1570;DHT22;778;50.120;8.698;2022-07-22T11:06:45;29.60;72.80
1570;DHT22;778;50.120;8.698;2022-07-22T11:09:16;29.60;71.40
1570;DHT22;778;50.120;8.698;2022-07-22T11:11:47;29.50;72.50
1570;DHT22;778;50.120;8.698;2022-07-22T11:14:21;29.80;71.30
1570;DHT22;778;50.120;8.698;2022-07-22T11:16:55;29.50;70.90
1570;DHT22;778;50.120;8.698;2022-07-22T11:19:27;29.50;70.70
1570;DHT22;778;50.120;8.698;2022-07-22T11:21:58;29.50;70.80
1570;DHT22;778;50.120;8.698;2022-07-22T11:24:30;29.80;70.40
1570;DHT22;778;50.120;8.698;2022-07-22T11:27:00;29.90;68.30
1570;DHT22;778;50.120;8.698;2022-07-22T11:29:33;30.10;68.40
1570;DHT22;778;50.120;8.698;2022-07-22T11:32:05;29.70;67.40
1570;DHT22;778;50.120;8.698;2022-07-22T11:34:38;29.80;67.10
1570;DHT22;778;50.120;8.698;2022-07-22T11:37:09;30.00;67.10
1570;DHT22;778;50.120;8.698;2022-07-22T11:39:38;30.20;66.00
1570;DHT22;778;50.120;8.698;2022-07-22T11:42:07;30.30;67.30
1570;DHT22;778;50.120;8.698;2022-07-22T11:44:37;30.30;65.10
1570;DHT22;778;50.120;8.698;2022-07-22T11:47:07;30.30;65.30
1570;DHT22;778;50.120;8.698;2022-07-22T11:49:38;30.40;66.10
1570;DHT22;778;50.120;8.698;2022-07-22T11:52:09;30.30;63.90
1570;DHT22;778;50.120;8.698;2022-07-22T11:54:40;30.10;70.00
1570;DHT22;778;50.120;8.698;2022-07-22T11:57:11;30.10;64.00
1570;DHT22;778;50.120;8.698;2022-07-22T11:59:40;30.20;64.70
1570;DHT22;778;50.120;8.698;2022-07-22T12:02:09;29.80;62.60
1570;DHT22;778;50.120;8.698;2022-07-22T12:04:43;29.80;62.60
1570;DHT22;778;50.120;8.698;2022-07-22T12:07:15;29.90;62.50
1570;DHT22;778;50.120;8.698;2022-07-22T12:09:45;29.90;64.00
1570;DHT22;778;50.120;8.698;2022-07-22T12:12:13;30.00;66.90
1570;DHT22;778;50.120;8.698;2022-07-22T12:14:45;29.90;63.70
1570;DHT22;778;50.120;8.698;2022-07-22T12:17:17;29.90;63.20
1570;DHT22;778;50.120;8.698;2022-07-22T12:19:46;30.00;62.50
1570;DHT22;778;50.120;8.698;2022-07-22T12:22:20;29.70;62.70
1570;DHT22;778;50.120;8.698;2022-07-22T12:24:58;29.40;63.10
1570;DHT22;778;50.120;8.698;2022-07-22T12:27:29;29.30;63.20
1570;DHT22;778;50.120;8.698;2022-07-22T12:29:58;29.40;62.80
1570;DHT22;778;50.120;8.698;2022-07-22T12:32:28;29.50;63.30
1570;DHT22;778;50.120;8.698;2022-07-22T12:34:59;29.10;63.60
1570;DHT22;778;50.120;8.698;2022-07-22T12:37:30;28.80;64.60
1570;DHT22;778;50.120;8.698;2022-07-22T12:40:02;28.70;64.70
1570;DHT22;778;50.120;8.698;2022-07-22T12:42:33;28.80;64.60
1570;DHT22;778;50.120;8.698;2022-07-22T12:45:06;29.00;64.00
1570;DHT22;778;50.120;8.698;2022-07-22T12:47:46;29.10;64.20
1570;DHT22;778;50.120;8.698;2022-07-22T12:50:26;29.20;67.40
1570;DHT22;778;50.120;8.698;2022-07-22T12:52:57;29.40;66.70
1570;DHT22;778;50.120;8.698;2022-07-22T12:55:46;29.40;66.70
1570;DHT22;778;50.120;8.698;2022-07-22T12:58:19;29.40;65.30
1570;DHT22;778;50.120;8.698;2022-07-22T13:00:49;29.50;65.00
1570;DHT22;778;50.120;8.698;2022-07-22T13:03:19;29.50;66.30
1570;DHT22;778;50.120;8.698;2022-07-22T13:05:51;29.70;64.60
1570;DHT22;778;50.120;8.698;2022-07-22T13:08:22;29.40;64.60
1570;DHT22;778;50.120;8.698;2022-07-22T13:10:51;29.40;64.90
1570;DHT22;778;50.120;8.698;2022-07-22T13:13:21;29.40;66.30
1570;DHT22;778;50.120;8.698;2022-07-22T13:15:51;29.40;64.00
1570;DHT22;778;50.120;8.698;2022-07-22T13:18:20;29.10;65.10
1570;DHT22;778;50.120;8.698;2022-07-22T13:20:50;29.00;64.60
1570;DHT22;778;50.120;8.698;2022-07-22T13:23:18;29.00;64.30
1570;DHT22;778;50.120;8.698;2022-07-22T13:25:47;29.10;65.40
1570;DHT22;778;50.120;8.698;2022-07-22T13:28:21;29.20;64.40
1570;DHT22;778;50.120;8.698;2022-07-22T13:30:50;29.10;65.20
1570;DHT22;778;50.120;8.698;2022-07-22T13:33:19;29.10;65.50
1570;DHT22;778;50.120;8.698;2022-07-22T13:35:47;29.00;65.30
1570;DHT22;778;50.120;8.698;2022-07-22T13:38:17;29.20;67.10
1570;DHT22;778;50.120;8.698;2022-07-22T13:40:46;29.20;71.00
1570;DHT22;778;50.120;8.698;2022-07-22T13:43:19;29.10;66.30
1570;DHT22;778;50.120;8.698;2022-07-22T13:45:48;29.30;70.60
1570;DHT22;778;50.120;8.698;2022-07-22T13:48:17;29.30;66.50
1570;DHT22;778;50.120;8.698;2022-07-22T13:50:47;29.40;65.90
1570;DHT22;778;50.120;8.698;2022-07-22T13:53:17;29.50;64.10
1570;DHT22;778;50.120;8.698;2022-07-22T13:55:46;29.60;65.70
1570;DHT22;778;50.120;8.698;2022-07-22T13:58:14;29.60;66.20
1570;DHT22;778;50.120;8.698;2022-07-22T14:00:43;29.40;65.30
1570;DHT22;778;50.120;8.698;2022-07-22T14:03:11;29.40;64.60
1570;DHT22;778;50.120;8.698;2022-07-22T14:05:39;29.30;64.90
1570;DHT22;778;50.120;8.698;2022-07-22T14:08:08;29.30;65.10
1570;DHT22;778;50.120;8.698;2022-07-22T14:10:38;29.40;63.70
1570;DHT22;778;50.120;8.698;2022-07-22T14:13:06;29.40;67.10
1570;DHT22;778;50.120;8.698;2022-07-22T14:15:35;29.50;64.70
1570;DHT22;778;50.120;8.698;2022-07-22T14:18:03;29.60;64.50
1570;DHT22;778;50.120;8.698;2022-07-22T14:20:34;29.70;64.00
1570;DHT22;778;50.120;8.698;2022-07-22T14:23:03;29.50;63.70
1570;DHT22;778;50.120;8.698;2022-07-22T14:25:32;29.30;63.70
1570;DHT22;778;50.120;8.698;2022-07-22T14:28:03;29.30;63.90
1570;DHT22;778;50.120;8.698;2022-07-22T14:30:52;29.10;63.20
1570;DHT22;778;50.120;8.698;2022-07-22T14:33:20;29.30;64.30
1570;DHT22;778;50.120;8.698;2022-07-22T14:35:49;29.50;65.70
1570;DHT22;778;50.120;8.698;2022-07-22T14:38:18;29.50;65.20
1570;DHT22;778;50.120;8.698;2022-07-22T14:40:46;29.70;65.90
1570;DHT22;778;50.120;8.698;2022-07-22T14:43:16;29.70;65.10
1570;DHT22;778;50.120;8.698;2022-07-22T14:46:05;29.80;62.90
1570;DHT22;778;50.120;8.698;2022-07-22T14:48:36;29.70;63.00
1570;DHT22;778;50.120;8.698;2022-07-22T14:51:05;29.60;63.50
1570;DHT22;778;50.120;8.698;2022-07-22T14:53:34;29.70;66.70
1570;DHT22;778;50.120;8.698;2022-07-22T14:56:03;29.60;65.60
1570;DHT22;778;50.120;8.698;2022-07-22T14:58:33;29.80;65.50
1570;DHT22;778;50.120;8.698;2022-07-22T15:01:02;29.80;64.00
1570;DHT22;778;50.120;8.698;2022-07-22T15:03:30;29.90;64.80
1570;DHT22;778;50.120;8.698;2022-07-22T15:05:59;30.00;63.80
1570;DHT22;778;50.120;8.698;2022-07-22T15:08:27;29.80;68.90
1570;DHT22;778;50.120;8.698;2022-07-22T15:10:56;29.70;64.20
1570;DHT22;778;50.120;8.698;2022-07-22T15:13:26;29.80;63.70
1570;DHT22;778;50.120;8.698;2022-07-22T15:15:57;29.80;65.00
1570;DHT22;778;50.120;8.698;2022-07-22T15:18:26;29.90;61.00
1570;DHT22;778;50.120;8.698;2022-07-22T15:20:54;30.00;67.30
1570;DHT22;778;50.120;8.698;2022-07-22T15:23:24;29.90;65.50
1570;DHT22;778;50.120;8.698;2022-07-22T15:25:55;30.10;63.10
1570;DHT22;778;50.120;8.698;2022-07-22T15:28:25;29.90;66.30
1570;DHT22;778;50.120;8.698;2022-07-22T15:31:01;29.80;67.30
1570;DHT22;778;50.120;8.698;2022-07-22T15:33:30;30.00;67.60
1570;DHT22;778;50.120;8.698;2022-07-22T15:36:05;30.10;67.30
1570;DHT22;778;50.120;8.698;2022-07-22T15:38:37;30.00;68.10
1570;DHT22;778;50.120;8.698;2022-07-22T15:41:06;30.10;66.20
1570;DHT22;778;50.120;8.698;2022-07-22T15:43:36;29.90;61.30
1570;DHT22;778;50.120;8.698;2022-07-22T15:46:08;29.70;61.70
1570;DHT22;778;50.120;8.698;2022-07-22T15:48:37;29.80;62.70
1570;DHT22;778;50.120;8.698;2022-07-22T15:51:08;29.90;62.50
1570;DHT22;778;50.120;8.698;2022-07-22T15:53:37;29.80;66.20
1570;DHT22;778;50.120;8.698;2022-07-22T15:56:06;29.90;61.30
1570;DHT22;778;50.120;8.698;2022-07-22T15:58:35;29.90;62.40
1570;DHT22;778;50.120;8.698;2022-07-22T16:01:43;29.80;61.40
1570;DHT22;778;50.120;8.698;2022-07-22T16:04:12;29.90;61.70
1570;DHT22;778;50.120;8.698;2022-07-22T16:06:40;30.10;63.30
1570;DHT22;778;50.120;8.698;2022-07-22T16:09:10;30.10;64.00
1570;DHT22;778;50.120;8.698;2022-07-22T16:11:39;30.00;65.90
1570;DHT22;778;50.120;8.698;2022-07-22T16:14:07;30.00;66.20
1570;DHT22;778;50.120;8.698;2022-07-22T16:16:36;30.10;63.90
1570;DHT22;778;50.120;8.698;2022-07-22T16:19:05;30.00;66.00
1570;DHT22;778;50.120;8.698;2022-07-22T16:21:34;30.20;61.70
1570;DHT22;778;50.120;8.698;2022-07-22T16:24:03;30.20;63.80
1570;DHT22;778;50.120;8.698;2022-07-22T16:26:31;30.20;61.80
1570;DHT22;778;50.120;8.698;2022-07-22T16:29:00;30.20;62.10
1570;DHT22;778;50.120;8.698;2022-07-22T16:31:29;30.20;61.60
1570;DHT22;778;50.120;8.698;2022-07-22T16:33:57;30.00;64.00
1570;DHT22;778;50.120;8.698;2022-07-22T16:36:27;30.00;61.60
1570;DHT22;778;50.120;8.698;2022-07-22T16:38:56;30.00;60.90
1570;DHT22;778;50.120;8.698;2022-07-22T16:41:26;30.00;61.70
1570;DHT22;778;50.120;8.698;2022-07-22T16:43:54;30.10;61.50
1570;DHT22;778;50.120;8.698;2022-07-22T16:46:26;30.00;61.40
1570;DHT22;778;50.120;8.698;2022-07-22T16:48:54;29.90;61.20